Time;durP1;ratioP1;P1;durP2;ratioP2;P2;SDS_P1;SDS_P2;PMS_P1;PMS_P2;Temp;Humidity;BMP_temperature;BMP_pressure;BME280_temperature;BME280_humidity;BME280_pressure;Samples;Min_cycle;Max_cycle;Signal;HPM_P1;HPM_P2
2021/12/17 00:00:46;;;;;;;27.95;10.77;;;;;;;6.98;63.25;101293.31;5013591;28;20066;-82
2021/12/17 00:03:34;;;;;;;30.15;10.63;;;;;;;6.98;63.16;101285.44;5013860;28;20055;-84
2021/12/17 00:06:16;;;;;;;22.05;9.13;;;;;;;6.99;63.16;101302.06;4996366;28;20515;-87
2021/12/17 00:08:47;;;;;;;25.65;11.35;;;;;;;6.96;63.08;101300.41;4997111;28;20061;-86
2021/12/17 00:11:15;;;;;;;25.40;10.65;;;;;;;6.99;63.12;101300.28;4997959;28;20745;-86
2021/12/17 00:13:44;;;;;;;31.67;11.20;;;;;;;6.91;63.44;101304.97;4995628;28;20051;-79
2021/12/17 00:16:17;;;;;;;31.38;10.18;;;;;;;6.91;63.52;101306.75;4996710;28;20050;-86
2021/12/17 00:19:08;;;;;;;28.23;11.15;;;;;;;6.91;63.51;101307.59;4993698;28;20054;-84
2021/12/17 00:44:12;;;;;;;23.05;11.40;;;;;;;6.85;63.44;101315.75;5014831;28;20105;-89
2021/12/17 00:49:27;;;;;;;28.77;9.68;;;;;;;6.85;63.65;101303.47;5029852;28;20060;-88
2021/12/17 00:52:00;;;;;;;29.80;9.70;;;;;;;6.82;63.80;101308.81;5027912;28;20050;-87
2021/12/17 00:54:37;;;;;;;22.75;8.65;;;;;;;6.82;63.72;101307.97;5030122;28;20058;-83
2021/12/17 00:57:12;;;;;;;25.60;9.77;;;;;;;6.82;63.80;101311.44;5028705;28;20078;-88
2021/12/17 00:59:40;;;;;;;28.15;11.77;;;;;;;6.86;63.65;101299.06;5024545;28;20064;-79
2021/12/17 01:02:12;;;;;;;29.02;8.98;;;;;;;6.85;63.75;101300.00;5027692;28;20249;-82
2021/12/17 01:04:44;;;;;;;22.88;10.88;;;;;;;6.79;63.85;101301.09;5025937;28;20042;-86
2021/12/17 01:07:12;;;;;;;20.20;8.10;;;;;;;6.81;63.80;101293.16;5027845;28;20117;-79
2021/12/17 01:09:41;;;;;;;22.00;9.05;;;;;;;6.82;63.89;101295.69;5030778;28;20076;-82
2021/12/17 01:12:10;;;;;;;23.40;10.15;;;;;;;6.83;63.66;101304.44;5064004;28;20048;-85
2021/12/17 01:14:40;;;;;;;32.22;12.65;;;;;;;6.87;63.45;101309.50;5076711;28;20037;-81
2021/12/17 01:17:09;;;;;;;25.27;10.85;;;;;;;6.86;63.75;101292.06;5093157;28;20051;-75
2021/12/17 01:20:13;;;;;;;25.25;10.95;;;;;;;6.81;63.86;101295.78;5078384;28;20135;-87
2021/12/17 01:23:00;;;;;;;22.33;9.35;;;;;;;6.80;63.77;101278.31;5075848;28;20051;-85
2021/12/17 01:37:14;;;;;;;22.65;8.57;;;;;;;6.72;64.02;101278.63;5030272;28;20121;-81
2021/12/17 01:42:23;;;;;;;26.88;10.10;;;;;;;6.74;64.00;101279.41;5027009;28;20105;-85
2021/12/17 01:44:53;;;;;;;24.42;11.02;;;;;;;6.75;63.88;101277.63;5026749;28;20492;-85
2021/12/17 01:47:20;;;;;;;28.40;10.52;;;;;;;6.74;63.77;101270.69;5034830;28;20079;-75
2021/12/17 02:00:53;;;;;;;25.27;9.52;;;;;;;6.66;64.15;101279.72;5011810;28;20151;-78
2021/12/17 02:03:21;;;;;;;25.05;10.60;;;;;;;6.63;64.40;101266.72;5029401;28;20136;-83
2021/12/17 02:05:48;;;;;;;33.25;11.50;;;;;;;6.66;64.35;101277.09;5034705;28;20625;-87
2021/12/17 02:08:16;;;;;;;26.00;10.07;;;;;;;6.63;64.45;101269.34;5064248;28;20056;-86
2021/12/17 02:32:56;;;;;;;33.10;9.23;;;;;;;6.62;64.40;101257.13;4963320;28;20051;-85
2021/12/17 02:35:31;;;;;;;26.92;11.00;;;;;;;6.58;64.27;101258.16;4960506;28;20055;-80
2021/12/17 02:38:05;;;;;;;26.95;9.40;;;;;;;6.58;64.10;101255.53;4966110;28;20058;-87
2021/12/17 02:46:04;;;;;;;22.60;8.55;;;;;;;6.49;64.48;101261.16;4954596;29;20059;-79
2021/12/17 02:48:34;;;;;;;22.00;7.57;;;;;;;6.47;64.57;101255.13;4954397;28;20057;-84
2021/12/17 02:51:02;;;;;;;24.73;8.85;;;;;;;6.47;64.64;101261.22;4952439;29;20050;-80
2021/12/17 02:53:32;;;;;;;25.27;10.35;;;;;;;6.47;64.85;101257.75;4953519;29;20050;-83
2021/12/17 02:56:04;;;;;;;27.98;9.65;;;;;;;6.50;64.73;101258.47;4957560;29;20051;-86
2021/12/17 02:58:33;;;;;;;33.45;8.70;;;;;;;6.50;64.62;101249.75;4985700;28;20164;-86
2021/12/17 03:01:05;;;;;;;30.75;11.00;;;;;;;6.53;64.43;101249.63;5015206;28;20048;-86
2021/12/17 03:03:34;;;;;;;24.70;10.32;;;;;;;6.56;64.60;101252.13;5094308;28;20048;-84
2021/12/17 03:06:02;;;;;;;25.85;10.38;;;;;;;6.56;64.58;101257.38;5092708;28;20055;-85
2021/12/17 03:08:31;;;;;;;29.92;12.23;;;;;;;6.58;64.47;101247.66;5093455;28;20139;-76
2021/12/17 03:10:59;;;;;;;35.92;13.93;;;;;;;6.56;64.69;101249.50;5093289;28;20085;-79
2021/12/17 03:13:28;;;;;;;33.05;13.70;;;;;;;6.54;64.75;101253.97;5094139;28;20052;-84
2021/12/17 03:16:01;;;;;;;42.75;16.63;;;;;;;6.57;64.66;101255.59;5094669;28;20048;-85
2021/12/17 03:24:09;;;;;;;38.15;18.33;;;;;;;6.53;64.94;101254.00;5094241;28;20051;-86
2021/12/17 03:26:36;;;;;;;36.55;14.73;;;;;;;6.49;65.07;101256.75;5091044;28;20119;-81
2021/12/17 03:29:07;;;;;;;34.58;14.93;;;;;;;6.51;64.89;101249.66;5093396;28;20074;-77
2021/12/17 03:31:36;;;;;;;28.92;12.10;;;;;;;6.50;64.82;101249.75;5090267;28;20040;-87
2021/12/17 03:34:16;;;;;;;29.77;12.60;;;;;;;6.44;64.87;101235.06;5093146;28;20058;-84
2021/12/17 03:36:43;;;;;;;24.67;10.57;;;;;;;6.42;65.04;101246.56;5093623;28;20056;-84
2021/12/17 03:39:12;;;;;;;29.92;11.13;;;;;;;6.43;65.00;101241.25;5094482;28;20601;-85
2021/12/17 03:41:46;;;;;;;36.17;12.18;;;;;;;6.41;65.11;101236.97;5093803;28;20138;-82
2021/12/17 03:44:13;;;;;;;25.92;11.05;;;;;;;6.37;65.04;101219.66;5093397;28;20059;-86
2021/12/17 03:46:46;;;;;;;26.65;10.68;;;;;;;6.27;65.22;101225.25;5092954;28;20063;-85
2021/12/17 03:49:14;;;;;;;25.20;9.95;;;;;;;6.24;65.28;101224.53;5093741;28;20060;-81
2021/12/17 03:51:50;;;;;;;34.85;12.35;;;;;;;6.22;65.30;101221.09;5092071;28;20058;-83
2021/12/17 03:54:20;;;;;;;51.75;25.05;;;;;;;6.13;65.50;101232.81;5092340;28;20067;-84
2021/12/17 03:56:47;;;;;;;27.35;10.38;;;;;;;6.00;65.72;101216.69;5092689;28;20068;-85
2021/12/17 03:59:15;;;;;;;31.58;13.63;;;;;;;5.86;66.07;101219.78;5095239;28;20051;-84
2021/12/17 04:01:42;;;;;;;46.33;19.95;;;;;;;5.79;66.11;101213.06;5092177;28;20087;-83
2021/12/17 04:04:10;;;;;;;29.05;12.38;;;;;;;5.74;66.55;101217.63;5092641;28;20070;-88
2021/12/17 04:06:40;;;;;;;39.42;17.20;;;;;;;5.64;66.67;101219.72;5094362;28;20078;-85
2021/12/17 04:09:08;;;;;;;28.95;12.02;;;;;;;5.61;66.72;101227.69;5093164;28;20044;-85
2021/12/17 04:11:39;;;;;;;37.95;14.77;;;;;;;5.58;67.09;101219.94;5094587;28;20056;-85
2021/12/17 04:14:06;;;;;;;26.27;10.02;;;;;;;5.60;66.55;101214.66;5093184;28;20165;-78
2021/12/17 04:16:35;;;;;;;39.10;13.07;;;;;;;5.50;67.13;101207.13;5092839;28;20198;-87
2021/12/17 04:19:04;;;;;;;27.42;10.35;;;;;;;5.54;67.20;101219.19;5092860;28;20048;-82
2021/12/17 04:21:32;;;;;;;62.35;24.50;;;;;;;5.47;67.15;101217.69;5090906;28;20058;-78
2021/12/17 04:23:59;;;;;;;63.00;20.17;;;;;;;5.42;67.18;101218.78;5091233;28;20052;-86
2021/12/17 04:26:27;;;;;;;32.03;11.98;;;;;;;5.39;67.41;101214.50;5089167;28;20090;-83
2021/12/17 04:28:56;;;;;;;27.45;10.57;;;;;;;5.42;67.46;101206.56;5092282;28;20063;-75
2021/12/17 04:31:26;;;;;;;46.13;19.25;;;;;;;5.38;67.52;101204.09;5104764;28;20040;-85
2021/12/17 04:33:54;;;;;;;27.08;11.88;;;;;;;5.38;67.27;101206.72;5095993;28;20043;-83
2021/12/17 04:36:26;;;;;;;29.60;11.77;;;;;;;5.40;67.44;101224.06;5095215;28;20082;-85
2021/12/17 04:38:56;;;;;;;32.92;10.43;;;;;;;5.39;67.22;101211.91;5089769;28;20131;-87
2021/12/17 04:41:48;;;;;;;36.03;12.35;;;;;;;5.44;67.38;101209.97;5075973;28;20090;-87
2021/12/17 04:44:22;;;;;;;31.05;13.15;;;;;;;5.48;67.18;101208.94;5090771;28;20056;-86
2021/12/17 04:46:57;;;;;;;39.78;15.52;;;;;;;5.58;66.94;101222.56;5092564;28;20047;-88
2021/12/17 04:57:44;;;;;;;29.83;11.38;;;;;;;5.75;66.24;101240.31;5104567;28;20077;-87
2021/12/17 05:00:19;;;;;;;33.92;12.73;;;;;;;5.77;66.31;101233.25;5079617;28;20044;-87
2021/12/17 05:02:51;;;;;;;26.65;10.07;;;;;;;5.81;66.16;101231.34;5095500;28;20120;-82
2021/12/17 05:05:22;;;;;;;22.42;9.93;;;;;;;5.82;66.18;101244.41;5096768;28;20129;-85
2021/12/17 05:07:56;;;;;;;26.08;10.95;;;;;;;5.85;66.00;101241.69;5093655;28;20124;-80
2021/12/17 05:10:26;;;;;;;23.23;12.68;;;;;;;5.82;65.89;101247.03;5094737;28;20122;-82
2021/12/17 05:18:31;;;;;;;27.70;10.00;;;;;;;5.96;65.43;101250.94;5102564;28;20085;-80
2021/12/17 05:21:02;;;;;;;24.83;12.68;;;;;;;5.89;65.57;101240.66;5095344;28;20062;-83
2021/12/17 05:23:33;;;;;;;24.23;11.77;;;;;;;5.88;65.71;101257.28;5089939;28;20048;-83
2021/12/17 05:26:03;;;;;;;28.80;10.88;;;;;;;5.92;65.58;101250.16;5095355;28;20048;-83
2021/12/17 05:28:32;;;;;;;33.88;12.07;;;;;;;5.94;65.50;101254.47;5092684;28;20126;-82
2021/12/17 05:31:07;;;;;;;22.58;10.63;;;;;;;6.00;65.51;101258.66;5097085;28;20403;-86
2021/12/17 05:33:35;;;;;;;30.02;11.63;;;;;;;5.99;65.39;101253.44;5094767;28;20246;-86
2021/12/17 05:36:03;;;;;;;33.30;12.70;;;;;;;5.94;65.47;101258.81;5096520;28;20059;-87
2021/12/17 05:38:32;;;;;;;29.75;14.30;;;;;;;6.00;65.38;101261.28;5093227;28;20586;-86
2021/12/17 05:41:00;;;;;;;31.50;14.80;;;;;;;5.99;65.17;101263.94;5094203;28;20055;-84
2021/12/17 05:43:35;;;;;;;29.02;15.10;;;;;;;5.94;65.44;101257.06;5091465;28;20054;-88
2021/12/17 05:46:11;;;;;;;31.03;13.07;;;;;;;6.03;65.19;101262.91;5057800;28;20048;-88
2021/12/17 05:48:41;;;;;;;30.30;14.88;;;;;;;6.02;65.18;101272.56;5079721;28;20602;-81
2021/12/17 05:51:10;;;;;;;37.47;16.55;;;;;;;5.93;65.39;101265.00;5075043;28;20045;-82
2021/12/17 05:53:38;;;;;;;41.25;16.75;;;;;;;5.90;65.47;101259.84;5080882;28;20083;-83
2021/12/17 05:56:08;;;;;;;36.15;14.93;;;;;;;5.86;65.61;101248.63;5072026;28;20051;-85
2021/12/17 05:58:35;;;;;;;36.40;17.48;;;;;;;5.86;65.53;101239.91;5070983;28;20045;-83
2021/12/17 06:01:04;;;;;;;32.20;15.75;;;;;;;5.86;65.69;101260.88;5067717;28;20144;-80
2021/12/17 06:03:32;;;;;;;35.28;15.63;;;;;;;5.89;65.71;101268.66;5068371;28;20500;-81
2021/12/17 06:06:00;;;;;;;28.80;14.32;;;;;;;5.93;65.67;101265.00;5067620;28;20131;-78
2021/12/17 06:08:27;;;;;;;33.28;17.00;;;;;;;5.93;65.51;101265.84;5071371;28;20104;-85
2021/12/17 06:10:55;;;;;;;36.60;15.07;;;;;;;6.01;65.42;101267.34;5077383;28;20138;-85
2021/12/17 06:13:25;;;;;;;36.55;16.02;;;;;;;5.97;65.40;101263.16;5079842;28;20135;-80
2021/12/17 06:16:00;;;;;;;28.63;13.93;;;;;;;6.00;65.40;101261.28;5092397;28;20052;-81
2021/12/17 06:18:32;;;;;;;34.95;14.82;;;;;;;6.01;65.25;101251.63;5092203;28;20044;-72
2021/12/17 06:21:02;;;;;;;37.55;17.77;;;;;;;5.98;65.40;101267.47;5094425;28;20051;-78
2021/12/17 06:23:29;;;;;;;35.08;15.77;;;;;;;5.98;65.34;101260.47;5092307;28;20056;-80
2021/12/17 06:25:56;;;;;;;35.65;16.98;;;;;;;5.96;65.45;101267.53;5092835;28;20048;-80
2021/12/17 06:28:23;;;;;;;33.00;17.88;;;;;;;5.99;65.30;101271.81;5091260;28;20052;-76
2021/12/17 06:30:50;;;;;;;33.78;18.55;;;;;;;5.96;65.45;101266.66;5089364;28;20149;-79
2021/12/17 06:33:18;;;;;;;37.42;18.27;;;;;;;5.96;65.45;101264.03;5090075;28;20104;-79
2021/12/17 06:35:47;;;;;;;39.25;18.30;;;;;;;5.93;65.75;101257.13;5089324;28;20054;-77
2021/12/17 06:38:14;;;;;;;36.95;17.85;;;;;;;5.92;65.43;101265.91;5043564;28;20055;-74
2021/12/17 06:40:43;;;;;;;48.47;21.23;;;;;;;5.90;65.50;101252.00;5079748;28;20044;-80
2021/12/17 06:43:12;;;;;;;32.33;13.45;;;;;;;5.93;65.52;101252.72;5087320;28;20505;-82
2021/12/17 06:45:50;;;;;;;35.22;15.80;;;;;;;5.97;65.47;101242.16;5079423;28;20076;-74
2021/12/17 06:48:24;;;;;;;34.72;16.60;;;;;;;5.94;65.24;101223.00;5073176;28;20369;-77
2021/12/17 06:59:33;;;;;;;40.90;20.05;;;;;;;5.96;65.31;101228.22;5086198;28;20105;-71
2021/12/17 07:10:17;;;;;;;45.15;19.83;;;;;;;5.86;65.48;101225.03;5029989;28;20057;-80
2021/12/17 07:32:30;;;;;;;32.58;16.38;;;;;;;5.91;65.28;101225.72;4870258;29;20060;-73
2021/12/17 07:35:26;;;;;;;37.00;16.50;;;;;;;5.91;65.16;101238.81;4859948;29;20136;-74
2021/12/17 07:40:39;;;;;;;34.05;17.67;;;;;;;5.95;65.30;101244.81;4873863;29;20120;-82
2021/12/17 07:43:23;;;;;;;33.15;15.40;;;;;;;5.99;65.21;101235.94;4929997;29;20679;-83
2021/12/17 07:45:57;;;;;;;30.73;14.23;;;;;;;5.98;65.07;101229.00;4936106;29;20150;-80
2021/12/17 07:48:28;;;;;;;36.33;17.65;;;;;;;5.87;65.33;101225.88;4933823;29;20043;-80
2021/12/17 07:51:04;;;;;;;41.47;18.55;;;;;;;5.88;65.23;101223.19;4929356;29;20084;-77
2021/12/17 07:53:34;;;;;;;24.85;13.88;;;;;;;5.90;65.31;101221.38;5001297;28;20057;-80
2021/12/17 07:56:09;;;;;;;39.70;18.98;;;;;;;5.86;65.35;101224.19;4998967;28;20042;-76
2021/12/17 07:58:44;;;;;;;32.53;15.90;;;;;;;5.86;65.56;101247.78;5002775;28;20104;-79
2021/12/17 08:01:14;;;;;;;31.35;18.15;;;;;;;5.94;65.31;101258.81;4997757;28;20073;-77
2021/12/17 08:03:50;;;;;;;41.40;20.50;;;;;;;5.94;65.19;101272.81;5039224;28;20048;-79
2021/12/17 08:06:26;;;;;;;42.45;19.08;;;;;;;5.96;65.08;101285.03;5085371;28;20106;-87
2021/12/17 08:08:57;;;;;;;39.17;20.13;;;;;;;6.01;65.30;101297.06;5086675;28;20086;-88
2021/12/17 08:17:12;;;;;;;33.35;18.73;;;;;;;6.04;64.81;101314.47;5074888;28;20063;-80
2021/12/17 08:25:16;;;;;;;29.48;16.52;;;;;;;6.03;65.07;101312.72;5084388;28;20104;-80
2021/12/17 08:28:02;;;;;;;36.38;19.52;;;;;;;5.97;64.96;101299.88;5082393;28;20379;-79
2021/12/17 08:30:38;;;;;;;42.35;20.35;;;;;;;6.00;64.91;101299.75;5075496;28;19920;-79
2021/12/17 08:33:19;;;;;;;43.38;19.17;;;;;;;6.00;64.90;101292.75;5090476;28;20040;-84
2021/12/17 08:38:50;;;;;;;32.15;20.73;;;;;;;6.05;64.45;101303.03;5085276;28;20044;-76
2021/12/17 08:41:22;;;;;;;32.63;20.75;;;;;;;6.05;64.61;101305.66;5082317;28;20048;-75
2021/12/17 08:43:53;;;;;;;30.63;18.63;;;;;;;6.08;64.59;101311.66;5081660;28;20066;-77
2021/12/17 08:46:21;;;;;;;46.22;24.45;;;;;;;6.11;64.30;101308.06;5083026;28;20520;-75
2021/12/17 08:48:48;;;;;;;41.30;22.58;;;;;;;6.15;64.15;101314.91;5083410;28;20128;-83
2021/12/17 08:51:21;;;;;;;37.78;19.88;;;;;;;6.19;64.02;101300.75;5079936;28;20101;-78
2021/12/17 08:53:48;;;;;;;40.03;18.75;;;;;;;6.29;63.64;101302.13;5083751;28;20135;-76
2021/12/17 08:56:19;;;;;;;33.97;18.67;;;;;;;6.24;63.67;101316.34;5089625;28;20149;-78
2021/12/17 08:58:50;;;;;;;38.35;19.60;;;;;;;6.24;63.56;101303.22;5091134;28;20136;-78
2021/12/17 09:01:23;;;;;;;37.78;20.50;;;;;;;6.22;63.57;101313.78;5087385;28;20048;-75
2021/12/17 09:03:50;;;;;;;35.63;21.10;;;;;;;6.19;63.76;101313.03;5094854;28;20190;-79
2021/12/17 09:06:17;;;;;;;41.40;18.70;;;;;;;6.24;63.66;101318.97;5091893;28;20050;-81
2021/12/17 09:08:45;;;;;;;30.10;20.13;;;;;;;6.20;63.65;101314.75;5090447;28;20484;-79
2021/12/17 09:11:12;;;;;;;28.08;15.57;;;;;;;6.20;63.80;101322.63;5084232;28;20389;-79
2021/12/17 09:13:41;;;;;;;31.95;17.33;;;;;;;6.18;63.80;101325.31;5092530;28;20048;-82
2021/12/17 09:16:09;;;;;;;33.35;19.27;;;;;;;6.22;63.65;101312.94;5091833;28;20044;-84
2021/12/17 09:18:40;;;;;;;31.60;17.23;;;;;;;6.20;63.89;101325.25;5085924;28;20231;-79
2021/12/17 09:21:17;;;;;;;31.75;18.52;;;;;;;6.26;63.78;101325.84;5095144;28;20044;-81
2021/12/17 09:23:58;;;;;;;32.38;17.85;;;;;;;6.25;63.28;101321.53;5094908;28;20606;-84
2021/12/17 09:26:27;;;;;;;22.67;13.45;;;;;;;6.19;62.48;101310.41;5076377;28;20060;-78
2021/12/17 09:28:55;;;;;;;25.35;14.55;;;;;;;6.14;62.48;101318.47;5080800;28;20052;-77
2021/12/17 09:31:23;;;;;;;25.45;17.05;;;;;;;6.09;62.76;101309.91;5077238;28;20048;-75
2021/12/17 09:33:53;;;;;;;20.40;12.27;;;;;;;6.04;62.99;101311.84;5072091;28;20492;-80
2021/12/17 09:36:21;;;;;;;28.30;13.60;;;;;;;6.10;62.82;101304.59;5071831;28;20052;-81
2021/12/17 09:38:54;;;;;;;26.33;14.68;;;;;;;6.08;62.74;101305.56;5072313;28;20053;-82
2021/12/17 09:41:26;;;;;;;26.98;14.75;;;;;;;6.22;62.71;101310.31;5073661;28;20078;-82
2021/12/17 09:43:55;;;;;;;25.88;13.30;;;;;;;6.28;62.68;101307.44;5073837;28;20051;-84
2021/12/17 09:46:23;;;;;;;30.75;14.95;;;;;;;6.28;62.31;101305.69;5071577;28;20086;-81
2021/12/17 09:48:54;;;;;;;31.25;17.25;;;;;;;6.28;62.48;101310.94;5072725;28;20048;-78
2021/12/17 09:51:21;;;;;;;31.13;18.73;;;;;;;6.29;62.67;101312.63;5083112;28;20056;-74
2021/12/17 09:53:58;;;;;;;36.67;21.00;;;;;;;6.31;62.55;101308.19;5103108;28;20054;-81
2021/12/17 09:56:27;;;;;;;23.30;15.98;;;;;;;6.39;62.55;101317.53;5099001;28;20055;-79
2021/12/17 09:59:06;;;;;;;28.50;17.83;;;;;;;6.36;62.38;101312.41;5096091;28;20086;-80
2021/12/17 10:01:38;;;;;;;27.15;16.38;;;;;;;6.36;62.30;101312.41;5093724;28;20036;-83
2021/12/17 10:04:17;;;;;;;27.85;15.43;;;;;;;6.31;62.36;101313.44;5096856;28;20407;-81
2021/12/17 10:06:46;;;;;;;34.42;17.02;;;;;;;6.38;62.33;101310.59;5103473;28;20495;-82
2021/12/17 10:09:16;;;;;;;29.58;18.20;;;;;;;6.39;62.30;101302.66;5098639;28;20058;-78
2021/12/17 10:12:03;;;;;;;28.10;14.02;;;;;;;6.41;62.31;101308.69;5095932;28;20080;-81
2021/12/17 10:14:36;;;;;;;29.55;16.42;;;;;;;6.37;62.29;101299.22;5078480;28;20067;-82
2021/12/17 10:17:10;;;;;;;33.88;15.38;;;;;;;6.42;62.32;101301.66;5100802;28;20126;-82
2021/12/17 10:19:53;;;;;;;34.63;17.35;;;;;;;6.42;62.36;101302.53;5090165;28;20071;-83
2021/12/17 10:22:22;;;;;;;35.20;16.30;;;;;;;6.50;62.12;101312.75;5096315;28;20525;-85
2021/12/17 10:25:02;;;;;;;27.92;15.82;;;;;;;6.49;62.33;101309.25;5082944;28;20080;-82
2021/12/17 10:27:31;;;;;;;32.50;18.40;;;;;;;6.48;62.40;101317.16;5088036;28;20229;-82
2021/12/17 10:30:00;;;;;;;39.53;15.80;;;;;;;6.48;62.04;101311.91;5077114;28;20079;-84
2021/12/17 10:32:28;;;;;;;32.42;16.50;;;;;;;6.46;62.31;101317.25;5081336;28;20477;-80
2021/12/17 10:35:09;;;;;;;33.30;14.55;;;;;;;6.50;62.56;101308.34;5078413;28;20080;-84
2021/12/17 10:38:04;;;;;;;34.35;15.88;;;;;;;6.52;62.41;101310.91;5076316;28;20056;-86
2021/12/17 10:40:39;;;;;;;37.85;17.38;;;;;;;6.49;62.34;101305.78;5077726;28;20049;-85
2021/12/17 10:43:15;;;;;;;25.50;15.13;;;;;;;6.47;61.96;101305.81;5074637;28;20128;-79
2021/12/17 10:45:56;;;;;;;29.88;15.27;;;;;;;6.45;62.19;101302.41;5073479;28;20051;-84
2021/12/17 10:48:27;;;;;;;33.28;19.00;;;;;;;6.47;62.13;101311.06;5093001;28;20060;-78
2021/12/17 10:51:16;;;;;;;25.40;14.23;;;;;;;6.48;62.41;101302.31;5091161;28;20047;-81
2021/12/17 10:53:53;;;;;;;29.33;16.98;;;;;;;6.51;62.16;101294.28;5090309;28;20048;-84
2021/12/17 10:56:22;;;;;;;24.88;14.05;;;;;;;6.53;61.87;101283.72;5084530;28;20143;-83
2021/12/17 10:58:59;;;;;;;21.67;13.93;;;;;;;6.61;61.68;101278.16;5083234;28;20048;-82
2021/12/17 11:01:34;;;;;;;26.40;13.43;;;;;;;6.62;61.84;101286.00;5084402;28;20048;-84
2021/12/17 11:04:23;;;;;;;29.98;16.20;;;;;;;6.62;61.64;101282.53;5094086;28;20051;-84
2021/12/17 11:07:19;;;;;;;21.67;13.02;;;;;;;6.60;61.35;101295.69;5085960;28;20071;-85
2021/12/17 11:09:49;;;;;;;26.38;16.38;;;;;;;6.61;61.35;101291.31;5078534;28;20099;-85
2021/12/17 11:12:33;;;;;;;23.88;15.93;;;;;;;6.57;61.14;101281.84;5087908;28;20048;-84
2021/12/17 11:15:12;;;;;;;25.67;13.48;;;;;;;6.56;61.30;101288.88;5075959;28;20040;-86
2021/12/17 11:17:39;;;;;;;35.17;16.08;;;;;;;6.58;61.35;101270.44;5083544;28;20533;-81
2021/12/17 11:20:10;;;;;;;25.50;14.23;;;;;;;6.56;61.49;101277.53;5074294;28;20056;-81
2021/12/17 11:22:44;;;;;;;33.63;14.77;;;;;;;6.54;61.50;101274.97;5075406;28;20044;-79
2021/12/17 11:25:17;;;;;;;26.60;16.48;;;;;;;6.59;61.24;101274.75;5089253;28;20126;-77
2021/12/17 11:27:45;;;;;;;28.42;17.00;;;;;;;6.56;61.62;101267.03;5073281;28;20049;-80
2021/12/17 11:30:14;;;;;;;33.63;19.17;;;;;;;6.64;61.58;101265.78;5073558;28;20101;-77
2021/12/17 11:32:46;;;;;;;26.95;16.05;;;;;;;6.64;61.30;101265.78;5072292;28;20058;-79
2021/12/17 11:35:15;;;;;;;21.25;13.88;;;;;;;6.63;61.40;101248.34;5075256;28;20045;-79
2021/12/17 11:37:45;;;;;;;26.88;14.00;;;;;;;6.62;61.10;101272.88;5081479;28;20052;-79
2021/12/17 11:40:21;;;;;;;20.40;12.85;;;;;;;6.66;60.87;101268.34;5070757;28;20112;-81
2021/12/17 11:43:00;;;;;;;;;;;;;;;6.90;59.61;101274.41;5082889;28;20067;-76
2021/12/17 11:45:29;;;;;;;21.00;11.95;;;;;;;6.70;60.25;101276.06;5075397;28;19920;-80
2021/12/17 11:48:12;;;;;;;22.27;11.70;;;;;;;6.68;60.55;101280.53;5074149;28;20111;-75
2021/12/17 11:50:40;;;;;;;22.23;11.93;;;;;;;6.67;60.40;101272.69;5091259;28;20063;-80
2021/12/17 11:53:21;;;;;;;24.95;13.48;;;;;;;6.72;60.86;101270.75;5079795;28;20407;-73
2021/12/17 11:55:56;;;;;;;27.35;13.68;;;;;;;6.75;60.65;101278.47;5092332;28;20190;-82
2021/12/17 11:58:47;;;;;;;22.65;13.68;;;;;;;6.76;60.55;101264.44;5096049;28;20078;-79
2021/12/17 12:01:35;;;;;;;21.90;13.43;;;;;;;6.80;60.19;101275.69;5094467;28;20047;-77
2021/12/17 12:04:38;;;;;;;18.33;10.80;;;;;;;6.87;60.32;101288.50;5081470;28;20185;-80
2021/12/17 12:07:08;;;;;;;21.02;12.10;;;;;;;6.86;59.81;101278.03;5077050;28;20048;-75
2021/12/17 12:10:02;;;;;;;18.58;11.70;;;;;;;6.83;60.14;101280.81;5080009;28;20052;-79
2021/12/17 12:12:33;;;;;;;19.08;11.68;;;;;;;6.82;60.12;101279.09;4988892;28;20049;-81
2021/12/17 12:15:43;;;;;;;18.10;10.15;;;;;;;6.82;59.97;101282.56;5006949;28;20595;-81
2021/12/17 12:18:17;;;;;;;17.73;10.20;;;;;;;6.81;60.14;101282.66;4952592;28;20051;-76
2021/12/17 12:21:02;;;;;;;17.02;10.10;;;;;;;6.80;59.95;101278.31;4951529;28;20554;-82
2021/12/17 12:23:58;;;;;;;25.23;13.82;;;;;;;6.84;60.46;101272.00;4973090;28;20191;-79
2021/12/17 12:26:38;;;;;;;27.25;13.48;;;;;;;6.78;60.32;101261.75;4970708;28;20141;-78
2021/12/17 12:29:17;;;;;;;26.77;13.82;;;;;;;6.75;60.23;101270.59;4973614;28;20117;-79
2021/12/17 12:32:12;;;;;;;26.20;11.18;;;;;;;6.83;60.41;101280.81;4967078;28;20061;-81
2021/12/17 12:34:42;;;;;;;26.23;12.85;;;;;;;6.88;60.44;101286.75;4973911;28;20799;-79
2021/12/17 12:37:28;;;;;;;24.02;13.20;;;;;;;6.93;60.56;101276.03;4979825;28;20123;-81
2021/12/17 12:40:16;;;;;;;26.45;13.70;;;;;;;6.93;60.88;101261.13;4980317;28;20214;-81
2021/12/17 12:42:52;;;;;;;30.48;15.55;;;;;;;6.87;60.93;101271.88;4970639;28;20046;-78
2021/12/17 12:45:31;;;;;;;25.50;14.73;;;;;;;6.84;61.39;101275.50;4973428;28;20784;-84
2021/12/17 12:48:03;;;;;;;28.95;16.33;;;;;;;6.86;61.26;101276.28;4967122;28;20047;-79
2021/12/17 12:50:36;;;;;;;20.73;13.85;;;;;;;6.87;61.40;101267.47;5021052;28;20045;-83
2021/12/17 12:53:11;;;;;;;27.35;19.70;;;;;;;6.88;61.53;101263.94;5024110;28;20052;-80
2021/12/17 12:55:45;;;;;;;30.80;17.63;;;;;;;6.82;61.82;101271.22;5100690;28;20046;-83
2021/12/17 12:58:18;;;;;;;25.25;18.55;;;;;;;6.87;61.80;101278.00;5100667;28;20044;-78
2021/12/17 13:00:48;;;;;;;24.08;16.15;;;;;;;6.85;61.86;101281.59;5092469;28;20500;-78
2021/12/17 13:03:18;;;;;;;27.00;17.15;;;;;;;6.83;61.87;101270.31;5093579;28;20074;-78
2021/12/17 13:05:49;;;;;;;29.30;16.75;;;;;;;6.84;61.94;101280.75;5094731;28;20130;-80
2021/12/17 13:08:18;;;;;;;26.80;17.13;;;;;;;6.84;61.94;101283.38;5098312;28;20710;-76
2021/12/17 13:10:50;;;;;;;43.47;17.40;;;;;;;6.85;61.96;101286.84;5094503;28;20235;-80
2021/12/17 13:13:30;;;;;;;31.80;15.07;;;;;;;6.92;61.91;101279.59;5097580;28;20048;-78
2021/12/17 13:16:13;;;;;;;27.08;16.65;;;;;;;6.90;61.70;101277.03;5082343;28;20037;-77
2021/12/17 13:21:45;;;;;;;32.33;16.45;;;;;;;6.86;61.79;101276.28;5080208;28;20105;-76
2021/12/17 13:24:16;;;;;;;29.33;17.17;;;;;;;6.85;61.55;101271.94;5080133;28;20060;-76
2021/12/17 13:26:46;;;;;;;27.83;15.57;;;;;;;6.85;61.67;101278.97;5076655;28;20063;-76
2021/12/17 13:29:19;;;;;;;32.42;17.92;;;;;;;6.88;61.32;101279.72;5081426;28;20043;-75
2021/12/17 13:31:50;;;;;;;26.20;15.73;;;;;;;6.88;61.70;101284.13;5083644;28;20051;-77
2021/12/17 13:34:24;;;;;;;33.83;17.60;;;;;;;6.86;61.65;101285.94;5088001;28;20052;-77
2021/12/17 13:37:02;;;;;;;23.77;16.25;;;;;;;6.86;61.49;101285.94;5097026;28;20104;-79
2021/12/17 13:39:32;;;;;;;27.63;17.65;;;;;;;6.89;61.38;101296.31;5093354;28;20120;-76
2021/12/17 13:42:01;;;;;;;30.52;16.60;;;;;;;6.87;61.58;101298.16;5090248;28;20047;-80
2021/12/17 13:44:36;;;;;;;32.95;18.00;;;;;;;6.87;61.50;101309.50;5091865;28;20048;-77
2021/12/17 13:47:28;;;;;;;29.75;16.00;;;;;;;6.91;61.47;101306.75;5090641;28;20180;-79
2021/12/17 13:50:09;;;;;;;32.17;17.30;;;;;;;6.91;61.40;101307.59;5097474;28;20052;-79
2021/12/17 13:52:39;;;;;;;22.55;15.48;;;;;;;6.91;61.08;101296.25;5069893;28;20109;-78
2021/12/17 13:55:11;;;;;;;26.58;14.43;;;;;;;6.89;61.00;101302.41;5078269;28;20135;-79
2021/12/17 13:57:41;;;;;;;27.27;14.00;;;;;;;6.87;61.14;101287.66;5089138;28;20258;-71
2021/12/17 14:00:13;;;;;;;31.17;16.15;;;;;;;6.87;61.20;101290.28;5087488;28;20495;-76
2021/12/17 14:02:42;;;;;;;22.08;13.43;;;;;;;6.89;61.12;101291.06;5083546;28;20040;-73
2021/12/17 14:05:13;;;;;;;34.35;18.75;;;;;;;6.86;61.07;101288.56;5091915;28;20058;-71
2021/12/17 14:07:41;;;;;;;35.22;17.02;;;;;;;6.86;61.06;101286.81;5091944;28;20060;-72
2021/12/17 14:10:12;;;;;;;30.83;16.75;;;;;;;6.89;60.93;101278.78;5084698;28;20056;-70
2021/12/17 14:12:42;;;;;;;32.88;16.30;;;;;;;6.85;61.16;101268.47;5088862;28;20050;-70
2021/12/17 14:15:13;;;;;;;26.05;16.90;;;;;;;6.86;60.97;101272.78;5079545;28;20040;-69
2021/12/17 14:17:43;;;;;;;31.50;15.45;;;;;;;6.83;61.52;101273.78;5087308;28;20639;-72